sensor_id;sensor_type;location;lat;lon;timestamp;noise_LAeq;noise_LA_min;noise_LA_max;noise_LA01;noise_LA95
57439;Laerm;43282;47.188;8.896;2023-04-03T00:00:36;42.85;38.37;56.18;;
57439;Laerm;43282;47.188;8.896;2023-04-03T00:03:02;42.08;39.21;47.61;;
57439;Laerm;43282;47.188;8.896;2023-04-03T00:05:27;42.13;39.34;45.11;;
57439;Laerm;43282;47.188;8.896;2023-04-03T00:07:53;41.50;35.04;50.77;;
57439;Laerm;43282;47.188;8.896;2023-04-03T00:10:19;40.15;34.69;47.65;;
57439;Laerm;43282;47.188;8.896;2023-04-03T00:12:44;41.49;36.45;53.17;;
57439;Laerm;43282;47.188;8.896;2023-04-03T00:15:09;39.76;35.36;46.80;;
57439;Laerm;43282;47.188;8.896;2023-04-03T00:17:35;39.77;35.36;48.16;;
57439;Laerm;43282;47.188;8.896;2023-04-03T00:20:00;39.52;34.69;44.62;;
57439;Laerm;43282;47.188;8.896;2023-04-03T00:22:25;42.06;38.21;50.23;;
57439;Laerm;43282;47.188;8.896;2023-04-03T00:24:53;40.99;35.66;49.06;;
57439;Laerm;43282;47.188;8.896;2023-04-03T00:27:19;51.75;36.20;69.40;;
57439;Laerm;43282;47.188;8.896;2023-04-03T00:29:44;43.51;37.32;51.69;;
57439;Laerm;43282;47.188;8.896;2023-04-03T00:32:09;51.63;37.12;67.69;;
57439;Laerm;43282;47.188;8.896;2023-04-03T00:34:35;48.80;37.32;65.76;;
57439;Laerm;43282;47.188;8.896;2023-04-03T00:37:00;40.77;35.36;50.28;;
57439;Laerm;43282;47.188;8.896;2023-04-03T00:39:25;43.23;36.91;56.45;;
57439;Laerm;43282;47.188;8.896;2023-04-03T00:41:51;40.87;35.94;52.14;;
57439;Laerm;43282;47.188;8.896;2023-04-03T00:46:53;49.70;38.05;65.97;;
57439;Laerm;43282;47.188;8.896;2023-04-03T00:49:19;47.33;36.69;59.87;;
57439;Laerm;43282;47.188;8.896;2023-04-03T00:51:45;49.01;37.12;65.72;;
57439;Laerm;43282;47.188;8.896;2023-04-03T00:54:10;53.58;38.67;70.32;;
57439;Laerm;43282;47.188;8.896;2023-04-03T00:56:36;47.36;38.37;62.52;;
57439;Laerm;43282;47.188;8.896;2023-04-03T00:59:06;44.95;37.88;57.42;;
57439;Laerm;43282;47.188;8.896;2023-04-03T01:01:33;42.22;37.70;53.22;;
57439;Laerm;43282;47.188;8.896;2023-04-03T01:03:59;46.53;38.81;61.03;;
57439;Laerm;43282;47.188;8.896;2023-04-03T01:06:26;44.84;37.88;57.55;;
57439;Laerm;43282;47.188;8.896;2023-04-03T01:08:52;47.26;39.81;71.33;;
57439;Laerm;43282;47.188;8.896;2023-04-03T01:11:18;42.86;38.52;54.23;;
57439;Laerm;43282;47.188;8.896;2023-04-03T01:13:43;44.77;36.20;55.91;;
57439;Laerm;43282;47.188;8.896;2023-04-03T01:16:09;43.10;37.32;55.56;;
57439;Laerm;43282;47.188;8.896;2023-04-03T01:18:35;42.35;37.70;55.12;;
57439;Laerm;43282;47.188;8.896;2023-04-03T01:21:08;46.80;39.21;63.39;;
57439;Laerm;43282;47.188;8.896;2023-04-03T01:26:01;46.87;38.95;60.47;;
57439;Laerm;43282;47.188;8.896;2023-04-03T01:28:31;49.00;39.08;65.42;;
57439;Laerm;43282;47.188;8.896;2023-04-03T01:33:28;43.62;37.70;55.29;;
57439;Laerm;43282;47.188;8.896;2023-04-03T01:35:53;43.15;37.70;56.38;;
57439;Laerm;43282;47.188;8.896;2023-04-03T01:38:18;48.77;37.52;65.81;;
57439;Laerm;43282;47.188;8.896;2023-04-03T01:40:43;43.17;38.52;55.01;;
57439;Laerm;43282;47.188;8.896;2023-04-03T01:43:09;44.55;36.91;61.04;;
57439;Laerm;43282;47.188;8.896;2023-04-03T01:45:34;48.70;38.21;64.64;;
57439;Laerm;43282;47.188;8.896;2023-04-03T01:47:59;41.76;37.52;48.52;;
57439;Laerm;43282;47.188;8.896;2023-04-03T01:50:25;41.74;36.45;57.62;;
57439;Laerm;43282;47.188;8.896;2023-04-03T01:52:50;39.98;36.69;44.58;;
57439;Laerm;43282;47.188;8.896;2023-04-03T01:55:16;48.78;38.05;66.39;;
57439;Laerm;43282;47.188;8.896;2023-04-03T01:57:41;40.85;36.91;45.75;;
57439;Laerm;43282;47.188;8.896;2023-04-03T02:00:06;40.36;35.01;45.72;;
57439;Laerm;43282;47.188;8.896;2023-04-03T02:02:32;40.26;36.34;44.47;;
57439;Laerm;43282;47.188;8.896;2023-04-03T02:04:58;48.40;36.20;67.32;;
57439;Laerm;43282;47.188;8.896;2023-04-03T02:07:23;46.10;35.66;63.30;;
57439;Laerm;43282;47.188;8.896;2023-04-03T02:09:48;49.02;35.66;68.37;;
57439;Laerm;43282;47.188;8.896;2023-04-03T02:12:13;40.83;36.45;49.64;;
57439;Laerm;43282;47.188;8.896;2023-04-03T02:14:39;45.18;37.32;60.57;;
57439;Laerm;43282;47.188;8.896;2023-04-03T02:17:04;44.05;37.32;56.58;;
57439;Laerm;43282;47.188;8.896;2023-04-03T02:19:33;48.77;37.88;66.13;;
57439;Laerm;43282;47.188;8.896;2023-04-03T02:21:58;42.93;37.12;50.91;;
57439;Laerm;43282;47.188;8.896;2023-04-03T02:24:24;42.24;37.32;49.47;;
57439;Laerm;43282;47.188;8.896;2023-04-03T02:26:49;40.94;36.20;45.65;;
57439;Laerm;43282;47.188;8.896;2023-04-03T02:29:14;40.97;36.91;46.02;;
57439;Laerm;43282;47.188;8.896;2023-04-03T02:31:40;57.65;37.52;76.17;;
57439;Laerm;43282;47.188;8.896;2023-04-03T02:34:05;46.41;38.67;60.12;;
57439;Laerm;43282;47.188;8.896;2023-04-03T02:36:31;48.01;38.21;65.09;;
57439;Laerm;43282;47.188;8.896;2023-04-03T02:38:56;52.43;37.88;69.28;;
57439;Laerm;43282;47.188;8.896;2023-04-03T02:41:22;42.21;37.32;49.66;;
57439;Laerm;43282;47.188;8.896;2023-04-03T02:43:47;43.86;38.21;55.30;;
57439;Laerm;43282;47.188;8.896;2023-04-03T02:46:12;48.13;39.34;62.87;;
57439;Laerm;43282;47.188;8.896;2023-04-03T02:48:40;47.80;40.53;63.37;;
57439;Laerm;43282;47.188;8.896;2023-04-03T02:51:05;49.04;40.33;61.49;;
57439;Laerm;43282;47.188;8.896;2023-04-03T02:53:30;51.10;40.33;66.69;;
57439;Laerm;43282;47.188;8.896;2023-04-03T02:55:56;52.19;40.79;67.22;;
57439;Laerm;43282;47.188;8.896;2023-04-03T02:58:21;50.37;42.41;63.60;;
57439;Laerm;43282;47.188;8.896;2023-04-03T03:00:46;50.98;41.06;66.91;;
57439;Laerm;43282;47.188;8.896;2023-04-03T03:03:12;52.68;42.03;66.07;;
57439;Laerm;43282;47.188;8.896;2023-04-03T03:05:39;51.62;42.16;66.91;;
57439;Laerm;43282;47.188;8.896;2023-04-03T03:08:04;55.03;43.77;69.35;;
57439;Laerm;43282;47.188;8.896;2023-04-03T03:10:29;52.86;42.47;69.10;;
57439;Laerm;43282;47.188;8.896;2023-04-03T03:12:55;52.64;43.99;71.93;;
57439;Laerm;43282;47.188;8.896;2023-04-03T03:15:20;57.44;46.33;70.18;;
57439;Laerm;43282;47.188;8.896;2023-04-03T03:17:46;54.17;41.89;67.31;;
57439;Laerm;43282;47.188;8.896;2023-04-03T03:20:12;56.24;45.45;68.21;;
57439;Laerm;43282;47.188;8.896;2023-04-03T03:22:39;50.33;44.19;59.05;;
57439;Laerm;43282;47.188;8.896;2023-04-03T03:25:04;54.05;43.58;68.07;;
57439;Laerm;43282;47.188;8.896;2023-04-03T03:27:31;56.60;43.86;67.08;;
57439;Laerm;43282;47.188;8.896;2023-04-03T03:29:56;51.50;41.38;67.00;;
57439;Laerm;43282;47.188;8.896;2023-04-03T03:32:21;54.89;41.89;72.00;;
57439;Laerm;43282;47.188;8.896;2023-04-03T03:34:47;56.54;44.65;70.15;;
57439;Laerm;43282;47.188;8.896;2023-04-03T03:37:12;57.15;45.69;67.25;;
57439;Laerm;43282;47.188;8.896;2023-04-03T03:39:37;58.78;44.47;73.36;;
57439;Laerm;43282;47.188;8.896;2023-04-03T03:42:03;61.53;50.16;73.90;;
57439;Laerm;43282;47.188;8.896;2023-04-03T03:44:28;59.34;48.98;71.00;;
57439;Laerm;43282;47.188;8.896;2023-04-03T03:46:56;57.05;46.10;69.69;;
57439;Laerm;43282;47.188;8.896;2023-04-03T03:49:22;56.12;45.01;69.48;;
57439;Laerm;43282;47.188;8.896;2023-04-03T03:51:47;57.56;47.42;71.52;;
57439;Laerm;43282;47.188;8.896;2023-04-03T03:54:12;58.79;48.04;72.80;;
57439;Laerm;43282;47.188;8.896;2023-04-03T03:56:38;56.00;46.50;67.08;;
57439;Laerm;43282;47.188;8.896;2023-04-03T03:59:04;57.52;48.12;72.10;;
57439;Laerm;43282;47.188;8.896;2023-04-03T04:01:29;57.73;47.65;68.63;;
57439;Laerm;43282;47.188;8.896;2023-04-03T04:03:54;56.66;47.50;65.19;;
57439;Laerm;43282;47.188;8.896;2023-04-03T04:06:20;55.29;44.97;67.50;;
57439;Laerm;43282;47.188;8.896;2023-04-03T04:08:46;58.44;44.54;75.86;;
57439;Laerm;43282;47.188;8.896;2023-04-03T04:11:11;56.88;46.58;67.53;;
57439;Laerm;43282;47.188;8.896;2023-04-03T04:13:36;56.80;45.89;71.18;;
57439;Laerm;43282;47.188;8.896;2023-04-03T04:16:02;55.34;44.97;66.98;;
57439;Laerm;43282;47.188;8.896;2023-04-03T04:18:27;59.89;49.88;74.59;;
57439;Laerm;43282;47.188;8.896;2023-04-03T04:20:52;58.74;50.25;68.93;;
57439;Laerm;43282;47.188;8.896;2023-04-03T04:23:17;58.21;50.47;66.96;;
57439;Laerm;43282;47.188;8.896;2023-04-03T04:25:46;60.10;50.51;74.12;;
57439;Laerm;43282;47.188;8.896;2023-04-03T04:28:12;57.32;48.63;69.33;;
57439;Laerm;43282;47.188;8.896;2023-04-03T04:30:37;56.54;49.64;66.85;;
57439;Laerm;43282;47.188;8.896;2023-04-03T04:33:03;59.88;49.03;74.89;;
57439;Laerm;43282;47.188;8.896;2023-04-03T04:35:28;61.33;51.02;73.67;;
57439;Laerm;43282;47.188;8.896;2023-04-03T04:37:53;59.52;52.63;68.46;;
57439;Laerm;43282;47.188;8.896;2023-04-03T04:40:19;61.41;52.21;67.67;;
57439;Laerm;43282;47.188;8.896;2023-04-03T04:42:44;61.65;54.97;68.99;;
57439;Laerm;43282;47.188;8.896;2023-04-03T04:45:10;61.97;55.78;70.66;;
57439;Laerm;43282;47.188;8.896;2023-04-03T04:47:35;62.11;53.01;75.70;;
57439;Laerm;43282;47.188;8.896;2023-04-03T04:50:00;62.24;54.71;73.31;;
57439;Laerm;43282;47.188;8.896;2023-04-03T04:52:27;60.54;52.67;67.65;;
57439;Laerm;43282;47.188;8.896;2023-04-03T04:54:52;61.53;52.80;73.78;;
57439;Laerm;43282;47.188;8.896;2023-04-03T04:57:17;61.73;54.57;69.77;;
57439;Laerm;43282;47.188;8.896;2023-04-03T04:59:43;61.77;54.41;73.47;;
57439;Laerm;43282;47.188;8.896;2023-04-03T05:02:08;60.43;52.89;70.95;;
57439;Laerm;43282;47.188;8.896;2023-04-03T05:04:33;61.37;54.48;70.45;;
57439;Laerm;43282;47.188;8.896;2023-04-03T05:06:59;61.03;53.29;72.84;;
57439;Laerm;43282;47.188;8.896;2023-04-03T05:09:24;61.85;52.70;75.11;;
57439;Laerm;43282;47.188;8.896;2023-04-03T05:11:50;61.61;54.92;68.11;;
57439;Laerm;43282;47.188;8.896;2023-04-03T05:14:16;62.56;55.54;73.31;;
57439;Laerm;43282;47.188;8.896;2023-04-03T05:16:41;62.83;54.59;72.11;;
57439;Laerm;43282;47.188;8.896;2023-04-03T05:19:06;62.67;55.42;73.34;;
57439;Laerm;43282;47.188;8.896;2023-04-03T05:21:32;61.69;54.57;74.25;;
57439;Laerm;43282;47.188;8.896;2023-04-03T05:24:00;63.17;55.86;74.11;;
57439;Laerm;43282;47.188;8.896;2023-04-03T05:26:28;64.72;55.76;81.77;;
57439;Laerm;43282;47.188;8.896;2023-04-03T05:28:53;65.73;54.30;81.06;;
57439;Laerm;43282;47.188;8.896;2023-04-03T05:31:19;61.36;52.31;73.76;;
57439;Laerm;43282;47.188;8.896;2023-04-03T05:33:45;60.61;52.29;71.69;;
57439;Laerm;43282;47.188;8.896;2023-04-03T05:36:11;60.91;53.73;68.40;;
57439;Laerm;43282;47.188;8.896;2023-04-03T05:38:37;61.47;51.95;71.56;;
57439;Laerm;43282;47.188;8.896;2023-04-03T05:41:02;58.06;48.96;66.78;;
57439;Laerm;43282;47.188;8.896;2023-04-03T05:43:27;67.24;51.15;83.69;;
57439;Laerm;43282;47.188;8.896;2023-04-03T05:45:52;61.48;51.37;74.65;;
57439;Laerm;43282;47.188;8.896;2023-04-03T05:48:18;64.35;51.33;78.88;;
57439;Laerm;43282;47.188;8.896;2023-04-03T05:50:43;62.04;52.28;72.97;;
57439;Laerm;43282;47.188;8.896;2023-04-03T05:53:19;61.57;53.44;73.60;;
57439;Laerm;43282;47.188;8.896;2023-04-03T05:55:46;62.97;53.05;78.08;;
57439;Laerm;43282;47.188;8.896;2023-04-03T05:58:11;62.38;53.15;73.92;;
57439;Laerm;43282;47.188;8.896;2023-04-03T06:00:36;59.42;50.51;72.89;;
57439;Laerm;43282;47.188;8.896;2023-04-03T06:03:02;61.13;49.57;78.34;;
57439;Laerm;43282;47.188;8.896;2023-04-03T06:05:27;61.50;49.16;76.07;;
57439;Laerm;43282;47.188;8.896;2023-04-03T06:07:52;60.99;48.51;75.20;;
57439;Laerm;43282;47.188;8.896;2023-04-03T06:10:18;58.02;50.88;68.47;;
57439;Laerm;43282;47.188;8.896;2023-04-03T06:12:45;59.62;50.37;71.28;;
57439;Laerm;43282;47.188;8.896;2023-04-03T06:15:11;64.60;50.64;78.40;;
57439;Laerm;43282;47.188;8.896;2023-04-03T06:17:37;59.10;51.73;67.97;;
57439;Laerm;43282;47.188;8.896;2023-04-03T06:20:03;60.86;50.43;73.86;;
57439;Laerm;43282;47.188;8.896;2023-04-03T06:22:28;62.87;47.55;79.70;;
57439;Laerm;43282;47.188;8.896;2023-04-03T06:24:55;60.88;50.10;71.24;;
57439;Laerm;43282;47.188;8.896;2023-04-03T06:27:20;60.32;47.28;75.22;;
57439;Laerm;43282;47.188;8.896;2023-04-03T06:29:46;60.33;47.55;73.89;;
57439;Laerm;43282;47.188;8.896;2023-04-03T06:32:11;56.55;47.77;70.13;;
57439;Laerm;43282;47.188;8.896;2023-04-03T06:34:36;61.57;47.93;76.04;;
57439;Laerm;43282;47.188;8.896;2023-04-03T06:37:02;57.63;45.39;70.00;;
57439;Laerm;43282;47.188;8.896;2023-04-03T06:39:27;59.13;48.70;69.48;;
57439;Laerm;43282;47.188;8.896;2023-04-03T06:41:52;63.20;47.52;80.60;;
57439;Laerm;43282;47.188;8.896;2023-04-03T06:44:18;61.60;48.37;75.87;;
57439;Laerm;43282;47.188;8.896;2023-04-03T06:46:43;60.62;46.18;74.53;;
57439;Laerm;43282;47.188;8.896;2023-04-03T06:49:09;61.03;45.14;75.14;;
57439;Laerm;43282;47.188;8.896;2023-04-03T06:51:35;55.46;45.30;72.74;;
57439;Laerm;43282;47.188;8.896;2023-04-03T06:54:01;61.48;45.86;81.48;;
57439;Laerm;43282;47.188;8.896;2023-04-03T06:56:26;56.61;44.87;71.54;;
57439;Laerm;43282;47.188;8.896;2023-04-03T06:58:52;58.46;47.12;69.38;;
57439;Laerm;43282;47.188;8.896;2023-04-03T07:01:19;61.62;49.00;74.86;;
57439;Laerm;43282;47.188;8.896;2023-04-03T07:03:45;62.59;48.95;76.05;;
57439;Laerm;43282;47.188;8.896;2023-04-03T07:06:14;61.17;51.84;76.60;;
57439;Laerm;43282;47.188;8.896;2023-04-03T07:08:40;60.29;50.15;74.07;;
57439;Laerm;43282;47.188;8.896;2023-04-03T07:11:07;59.02;48.90;68.08;;
57439;Laerm;43282;47.188;8.896;2023-04-03T07:13:33;57.53;46.05;68.67;;
57439;Laerm;43282;47.188;8.896;2023-04-03T07:15:58;57.26;47.44;67.50;;
57439;Laerm;43282;47.188;8.896;2023-04-03T07:18:24;55.98;45.14;67.30;;
57439;Laerm;43282;47.188;8.896;2023-04-03T07:20:49;57.98;45.20;73.09;;
57439;Laerm;43282;47.188;8.896;2023-04-03T07:23:15;58.07;46.13;70.50;;
57439;Laerm;43282;47.188;8.896;2023-04-03T07:25:44;58.27;47.10;71.86;;
57439;Laerm;43282;47.188;8.896;2023-04-03T07:28:09;58.86;46.18;73.48;;
57439;Laerm;43282;47.188;8.896;2023-04-03T07:30:41;57.75;47.34;68.81;;
57439;Laerm;43282;47.188;8.896;2023-04-03T07:33:07;62.53;45.72;79.30;;
57439;Laerm;43282;47.188;8.896;2023-04-03T07:35:32;63.32;45.72;78.29;;
57439;Laerm;43282;47.188;8.896;2023-04-03T07:37:57;59.45;47.10;74.63;;
57439;Laerm;43282;47.188;8.896;2023-04-03T07:40:23;62.22;47.81;75.14;;
57439;Laerm;43282;47.188;8.896;2023-04-03T07:42:48;59.45;48.35;73.77;;
57439;Laerm;43282;47.188;8.896;2023-04-03T07:45:13;61.07;49.33;72.36;;
57439;Laerm;43282;47.188;8.896;2023-04-03T07:47:39;56.95;47.63;72.69;;
57439;Laerm;43282;47.188;8.896;2023-04-03T07:50:05;60.83;48.31;75.89;;
57439;Laerm;43282;47.188;8.896;2023-04-03T07:52:31;61.36;50.64;71.99;;
57439;Laerm;43282;47.188;8.896;2023-04-03T07:54:56;58.98;48.37;70.26;;
57439;Laerm;43282;47.188;8.896;2023-04-03T07:57:21;59.60;48.23;71.05;;
57439;Laerm;43282;47.188;8.896;2023-04-03T07:59:46;61.27;52.35;74.43;;
57439;Laerm;43282;47.188;8.896;2023-04-03T08:02:12;61.15;53.37;71.87;;
57439;Laerm;43282;47.188;8.896;2023-04-03T08:04:37;61.20;53.82;69.84;;
57439;Laerm;43282;47.188;8.896;2023-04-03T08:07:03;72.20;58.81;79.22;;
57439;Laerm;43282;47.188;8.896;2023-04-03T08:09:28;65.69;54.12;72.67;;
57439;Laerm;43282;47.188;8.896;2023-04-03T08:11:53;63.76;51.26;79.61;;
57439;Laerm;43282;47.188;8.896;2023-04-03T08:14:19;63.81;53.33;77.62;;
57439;Laerm;43282;47.188;8.896;2023-04-03T08:16:45;67.20;58.42;74.14;;
57439;Laerm;43282;47.188;8.896;2023-04-03T08:19:11;72.39;54.84;81.38;;
57439;Laerm;43282;47.188;8.896;2023-04-03T08:21:40;61.56;53.02;75.57;;
57439;Laerm;43282;47.188;8.896;2023-04-03T08:24:06;59.03;48.16;71.16;;
57439;Laerm;43282;47.188;8.896;2023-04-03T08:26:32;60.25;46.52;72.97;;
57439;Laerm;43282;47.188;8.896;2023-04-03T08:28:57;58.49;49.79;72.20;;
57439;Laerm;43282;47.188;8.896;2023-04-03T08:31:22;59.64;49.90;71.07;;
57439;Laerm;43282;47.188;8.896;2023-04-03T08:33:48;62.37;49.12;75.22;;
57439;Laerm;43282;47.188;8.896;2023-04-03T08:36:21;59.85;49.52;71.13;;
57439;Laerm;43282;47.188;8.896;2023-04-03T08:38:47;62.66;48.37;77.08;;
57439;Laerm;43282;47.188;8.896;2023-04-03T08:43:54;65.31;54.31;75.21;;
57439;Laerm;43282;47.188;8.896;2023-04-03T08:46:21;73.59;55.03;82.51;;
57439;Laerm;43282;47.188;8.896;2023-04-03T08:48:48;59.35;51.75;70.89;;
57439;Laerm;43282;47.188;8.896;2023-04-03T08:51:15;61.54;50.86;75.26;;
57439;Laerm;43282;47.188;8.896;2023-04-03T08:53:43;60.53;47.36;74.30;;
57439;Laerm;43282;47.188;8.896;2023-04-03T08:56:09;56.70;46.52;71.80;;
57439;Laerm;43282;47.188;8.896;2023-04-03T09:01:12;57.12;46.55;69.21;;
57439;Laerm;43282;47.188;8.896;2023-04-03T09:03:40;57.53;48.55;70.12;;
57439;Laerm;43282;47.188;8.896;2023-04-03T09:08:42;59.29;47.26;73.42;;
57439;Laerm;43282;47.188;8.896;2023-04-03T09:11:12;58.56;48.34;70.10;;
57439;Laerm;43282;47.188;8.896;2023-04-03T09:13:43;58.70;49.73;67.47;;
57439;Laerm;43282;47.188;8.896;2023-04-03T09:16:25;60.49;50.83;70.92;;
57439;Laerm;43282;47.188;8.896;2023-04-03T09:21:38;58.51;47.00;72.29;;
57439;Laerm;43282;47.188;8.896;2023-04-03T09:24:07;61.94;48.66;77.42;;
57439;Laerm;43282;47.188;8.896;2023-04-03T09:26:40;60.79;47.68;75.17;;
57439;Laerm;43282;47.188;8.896;2023-04-03T09:29:08;57.81;48.31;67.12;;
57439;Laerm;43282;47.188;8.896;2023-04-03T09:31:40;60.79;50.04;77.31;;
57439;Laerm;43282;47.188;8.896;2023-04-03T09:34:23;58.20;49.30;76.79;;
57439;Laerm;43282;47.188;8.896;2023-04-03T09:36:52;62.82;47.59;79.71;;
57439;Laerm;43282;47.188;8.896;2023-04-03T09:39:21;57.27;47.42;70.22;;
57439;Laerm;43282;47.188;8.896;2023-04-03T09:41:57;57.73;48.12;70.78;;
57439;Laerm;43282;47.188;8.896;2023-04-03T09:44:25;59.57;48.20;76.06;;
57439;Laerm;43282;47.188;8.896;2023-04-03T09:46:50;58.65;49.72;67.44;;
57439;Laerm;43282;47.188;8.896;2023-04-03T09:49:16;60.50;49.29;72.24;;
57439;Laerm;43282;47.188;8.896;2023-04-03T09:51:42;60.40;47.79;74.24;;
57439;Laerm;43282;47.188;8.896;2023-04-03T09:54:35;59.82;49.88;66.00;;
57439;Laerm;43282;47.188;8.896;2023-04-03T09:56:54;61.11;49.85;75.06;;
57439;Laerm;43282;47.188;8.896;2023-04-03T09:59:20;59.64;51.13;67.96;;
57439;Laerm;43282;47.188;8.896;2023-04-03T10:02:20;57.54;46.78;67.46;;
57439;Laerm;43282;47.188;8.896;2023-04-03T10:04:39;63.75;51.87;79.49;;
57439;Laerm;43282;47.188;8.896;2023-04-03T10:07:04;63.52;51.95;79.75;;
57439;Laerm;43282;47.188;8.896;2023-04-03T10:09:57;59.84;46.91;68.70;;
57439;Laerm;43282;47.188;8.896;2023-04-03T10:12:22;60.39;48.15;72.57;;
57439;Laerm;43282;47.188;8.896;2023-04-03T10:19:53;57.27;46.10;71.02;;
57439;Laerm;43282;47.188;8.896;2023-04-03T10:25:03;58.43;48.67;70.34;;
57439;Laerm;43282;47.188;8.896;2023-04-03T10:27:33;59.22;48.20;71.87;;
57439;Laerm;43282;47.188;8.896;2023-04-03T10:30:19;59.84;47.74;75.88;;
57439;Laerm;43282;47.188;8.896;2023-04-03T10:35:21;56.79;47.38;67.00;;
57439;Laerm;43282;47.188;8.896;2023-04-03T10:42:50;56.99;46.71;69.85;;
57439;Laerm;43282;47.188;8.896;2023-04-03T10:47:49;59.58;49.75;73.52;;
57439;Laerm;43282;47.188;8.896;2023-04-03T10:53:03;58.64;47.50;67.23;;
57439;Laerm;43282;47.188;8.896;2023-04-03T10:55:31;60.72;51.63;74.09;;
57439;Laerm;43282;47.188;8.896;2023-04-03T10:57:59;61.24;51.42;71.34;;
57439;Laerm;43282;47.188;8.896;2023-04-03T11:00:35;59.52;50.35;69.42;;
57439;Laerm;43282;47.188;8.896;2023-04-03T11:03:13;60.43;49.82;73.61;;
57439;Laerm;43282;47.188;8.896;2023-04-03T11:05:44;58.07;48.55;67.77;;
57439;Laerm;43282;47.188;8.896;2023-04-03T11:08:12;59.69;48.57;71.07;;
57439;Laerm;43282;47.188;8.896;2023-04-03T11:15:36;59.38;48.92;68.85;;
57439;Laerm;43282;47.188;8.896;2023-04-03T11:18:02;58.27;48.58;68.81;;
57439;Laerm;43282;47.188;8.896;2023-04-03T11:20:31;59.45;48.80;72.41;;
57439;Laerm;43282;47.188;8.896;2023-04-03T11:25:43;60.31;51.08;76.58;;
57439;Laerm;43282;47.188;8.896;2023-04-03T11:28:12;58.12;47.44;66.98;;
57439;Laerm;43282;47.188;8.896;2023-04-03T11:30:44;58.75;48.84;72.01;;
57439;Laerm;43282;47.188;8.896;2023-04-03T11:35:52;59.36;50.13;70.81;;
57439;Laerm;43282;47.188;8.896;2023-04-03T11:38:33;62.34;48.07;77.00;;
57439;Laerm;43282;47.188;8.896;2023-04-03T11:41:02;60.34;49.52;74.36;;
57439;Laerm;43282;47.188;8.896;2023-04-03T11:43:31;62.27;50.68;76.57;;
57439;Laerm;43282;47.188;8.896;2023-04-03T11:50:59;60.05;48.46;71.04;;
57439;Laerm;43282;47.188;8.896;2023-04-03T11:55:58;61.35;48.66;71.95;;
57439;Laerm;43282;47.188;8.896;2023-04-03T12:29:07;59.26;48.95;76.34;;
57439;Laerm;43282;47.188;8.896;2023-04-03T12:31:41;57.57;47.54;68.75;;
57439;Laerm;43282;47.188;8.896;2023-04-03T12:34:17;58.32;48.16;66.32;;
57439;Laerm;43282;47.188;8.896;2023-04-03T12:39:35;61.31;47.08;77.08;;
57439;Laerm;43282;47.188;8.896;2023-04-03T12:42:15;58.28;48.10;70.67;;
57439;Laerm;43282;47.188;8.896;2023-04-03T12:47:28;58.61;47.44;69.60;;
57439;Laerm;43282;47.188;8.896;2023-04-03T12:49:53;58.70;48.02;68.97;;
57439;Laerm;43282;47.188;8.896;2023-04-03T12:52:42;56.01;44.65;66.13;;
57439;Laerm;43282;47.188;8.896;2023-04-03T12:55:16;56.99;47.50;68.26;;
57439;Laerm;43282;47.188;8.896;2023-04-03T12:57:42;57.48;46.66;66.48;;
57439;Laerm;43282;47.188;8.896;2023-04-03T13:00:20;59.26;46.30;71.96;;
57439;Laerm;43282;47.188;8.896;2023-04-03T13:02:46;60.59;47.96;74.91;;
57439;Laerm;43282;47.188;8.896;2023-04-03T13:05:16;55.84;45.51;65.72;;
57439;Laerm;43282;47.188;8.896;2023-04-03T13:07:42;57.45;46.25;71.47;;
57439;Laerm;43282;47.188;8.896;2023-04-03T13:17:42;61.94;48.15;78.30;;
57439;Laerm;43282;47.188;8.896;2023-04-03T13:20:12;58.94;47.06;74.78;;
57439;Laerm;43282;47.188;8.896;2023-04-03T13:22:48;61.29;48.85;76.13;;
57439;Laerm;43282;47.188;8.896;2023-04-03T13:25:16;60.26;49.15;72.86;;
57439;Laerm;43282;47.188;8.896;2023-04-03T13:27:42;57.71;47.20;71.85;;
57439;Laerm;43282;47.188;8.896;2023-04-03T13:30:20;56.73;46.73;68.52;;
57439;Laerm;43282;47.188;8.896;2023-04-03T13:32:46;58.39;46.48;74.07;;
57439;Laerm;43282;47.188;8.896;2023-04-03T13:35:31;60.22;47.96;75.35;;
57439;Laerm;43282;47.188;8.896;2023-04-03T13:37:58;59.89;49.20;72.50;;
57439;Laerm;43282;47.188;8.896;2023-04-03T13:40:24;62.25;48.43;77.82;;
57439;Laerm;43282;47.188;8.896;2023-04-03T13:43:00;59.90;49.10;72.93;;
57439;Laerm;43282;47.188;8.896;2023-04-03T13:45:26;58.84;48.73;76.37;;
57439;Laerm;43282;47.188;8.896;2023-04-03T13:48:39;60.02;47.40;70.69;;
57439;Laerm;43282;47.188;8.896;2023-04-03T13:50:56;60.13;48.90;72.01;;
57439;Laerm;43282;47.188;8.896;2023-04-03T13:53:22;60.95;47.02;75.67;;
57439;Laerm;43282;47.188;8.896;2023-04-03T13:58:28;59.59;43.86;77.01;;
57439;Laerm;43282;47.188;8.896;2023-04-03T14:03:25;56.84;44.97;70.21;;
57439;Laerm;43282;47.188;8.896;2023-04-03T14:05:51;56.58;46.05;72.12;;
57439;Laerm;43282;47.188;8.896;2023-04-03T14:08:17;62.89;45.20;80.08;;
57439;Laerm;43282;47.188;8.896;2023-04-03T14:10:43;59.71;44.35;79.90;;
57439;Laerm;43282;47.188;8.896;2023-04-03T14:13:12;58.51;44.43;74.64;;
57439;Laerm;43282;47.188;8.896;2023-04-03T14:15:38;59.65;46.30;73.77;;
57439;Laerm;43282;47.188;8.896;2023-04-03T14:18:04;58.91;46.40;69.75;;
57439;Laerm;43282;47.188;8.896;2023-04-03T14:20:29;58.21;45.01;73.55;;
57439;Laerm;43282;47.188;8.896;2023-04-03T14:22:54;64.35;46.10;81.89;;
57439;Laerm;43282;47.188;8.896;2023-04-03T14:25:20;60.26;45.01;74.64;;
57439;Laerm;43282;47.188;8.896;2023-04-03T14:27:48;57.06;44.03;71.16;;
57439;Laerm;43282;47.188;8.896;2023-04-03T14:30:16;59.54;44.58;78.02;;
57439;Laerm;43282;47.188;8.896;2023-04-03T14:32:42;60.72;44.80;72.73;;
57439;Laerm;43282;47.188;8.896;2023-04-03T14:35:07;55.65;44.19;66.30;;
57439;Laerm;43282;47.188;8.896;2023-04-03T14:37:33;58.00;44.43;72.18;;
57439;Laerm;43282;47.188;8.896;2023-04-03T14:39:59;57.46;43.80;66.70;;
57439;Laerm;43282;47.188;8.896;2023-04-03T14:42:29;58.93;44.54;72.42;;
57439;Laerm;43282;47.188;8.896;2023-04-03T14:44:55;58.17;43.81;71.45;;
57439;Laerm;43282;47.188;8.896;2023-04-03T14:47:23;58.25;43.90;70.78;;
57439;Laerm;43282;47.188;8.896;2023-04-03T14:49:49;60.01;45.36;80.63;;
57439;Laerm;43282;47.188;8.896;2023-04-03T14:52:19;62.64;47.52;76.74;;
57439;Laerm;43282;47.188;8.896;2023-04-03T14:54:45;58.37;48.95;68.51;;
57439;Laerm;43282;47.188;8.896;2023-04-03T14:57:11;58.40;48.54;68.62;;
57439;Laerm;43282;47.188;8.896;2023-04-03T14:59:38;59.17;50.92;67.67;;
57439;Laerm;43282;47.188;8.896;2023-04-03T15:02:08;60.03;51.87;70.82;;
57439;Laerm;43282;47.188;8.896;2023-04-03T15:04:37;63.95;53.30;77.07;;
57439;Laerm;43282;47.188;8.896;2023-04-03T15:07:02;64.02;52.53;77.23;;
57439;Laerm;43282;47.188;8.896;2023-04-03T15:09:28;63.29;53.81;88.44;;
57439;Laerm;43282;47.188;8.896;2023-04-03T15:11:54;59.89;51.53;67.84;;
57439;Laerm;43282;47.188;8.896;2023-04-03T15:14:20;61.89;53.66;74.31;;
57439;Laerm;43282;47.188;8.896;2023-04-03T15:16:45;60.81;53.73;70.31;;
57439;Laerm;43282;47.188;8.896;2023-04-03T15:19:11;61.76;54.02;72.73;;
57439;Laerm;43282;47.188;8.896;2023-04-03T15:21:37;60.62;53.35;67.55;;
57439;Laerm;43282;47.188;8.896;2023-04-03T15:24:02;59.57;51.72;70.34;;
57439;Laerm;43282;47.188;8.896;2023-04-03T15:26:28;61.72;55.23;70.55;;
57439;Laerm;43282;47.188;8.896;2023-04-03T15:28:53;58.65;50.42;68.98;;